Saturday, November 17, 2018, 6:41 AM GMT
Back to Local

CWDQ, La Tuque

Location: , , Canada Lat: 47.417
Local Time: 6:41 AM GMT ( 6:41 GMT) Lon: -72.8
Time Zone: GMT Elev: 554 ft

Show me the last for .
Show Decoded

2018-11-17 06:00 METAR CWDQ 170600Z AUTO 16003KT M06/M07 RMK AO1 SOG 13 3012 SLP058 T10591067
                 50020 =
2018-11-17 05:00 METAR CWDQ 170500Z AUTO 16002KT M06/M07 RMK AO1 SOG 13 3007 SLP053 T10591066
                 50020 =
2018-11-17 04:00 METAR CWDQ 170400Z AUTO 15001KT M06/M06 RMK AO1 0PAST HR SOG 13 3002 SLP048
                 P0008 T10591064 50020 =
2018-11-17 03:00 METAR CWDQ 170300Z AUTO 15001KT M06/M06 RMK AO1 SOG 12 1003 SLP046 T10571063 =
2018-11-17 02:00 METAR CWDQ 170200Z AUTO 17002KT M05/M06 RMK AO1 SOG 12 1004 SLP046 T10451060 =
2018-11-17 01:00 METAR CWDQ 170100Z AUTO 18002KT M05/M06 RMK AO1 SOG 12 3002 SLP046 T10531057 =
2018-11-17 00:00 METAR CWDQ 170000Z AUTO 00000KT M06/M06 RMK AO1 SOG 11 5008 SLP043 T10551059
                 50030 =
2018-11-16 23:00 METAR CWDQ 162300Z AUTO 32001KT M05/M06 RMK AO1 0PAST HR SOG 11 6012 SLP042
                 P0004 T10541058 50030 =
2018-11-16 22:00 METAR CWDQ 162200Z AUTO 32002KT M05/M06 RMK AO1 SOG 10 6021 SLP044 T10541057
                 50020 =
2018-11-16 21:00 METAR CWDQ 162100Z AUTO 35003KT M05/M06 RMK AO1 0PAST HR SOG 10 6021 SLP051
                 P0008 T10521058 50020 =
2018-11-16 20:00 METAR CWDQ 162000Z AUTO 33003KT M05/M06 RMK AO1 SOG 10 7029 SLP054 T10531059 =
2018-11-16 19:00 METAR CWDQ 161900Z AUTO 35003KT M05/M06 RMK AO1 SOG 09 6032 SLP066 T10541061 =
2018-11-16 18:00 METAR CWDQ 161800Z AUTO 35004KT M06/M07 RMK AO1 0PAST HR SOG 08 6037 SLP073
                 P0008 T10571066 50020 =
2018-11-16 17:00 METAR CWDQ 161700Z AUTO 35004KT M06/M07 RMK AO1 SOG 07 8038 SLP084 T10601072 =
2018-11-16 16:00 METAR CWDQ 161600Z AUTO 35004KT M07/M08 RMK AO1 SOG 06 6041 SLP099 T10661078 =
2018-11-16 15:00 METAR CWDQ 161500Z AUTO 33004KT M07/M08 RMK AO1 SOG 06 8034 SLP111 T10701081 =
2018-11-16 14:00 METAR CWDQ 161400Z AUTO 33003KT M07/M09 RMK AO1 SOG 06 8025 SLP124 T10731086 =
2018-11-16 13:00 METAR CWDQ 161300Z AUTO 36001KT M07/M10 RMK AO1 SOG 06 8012 SLP141 T10731098 =
2018-11-16 12:00 METAR CWDQ 161200Z AUTO 00000KT M08/M10 RMK AO1 SOG 06 6018 SLP146 T10761098 =
2018-11-16 11:00 METAR CWDQ 161100Z AUTO 00000KT M08/M10 RMK AO1 SOG 06 6034 SLP149 T10801101 =
2018-11-16 10:00 METAR CWDQ 161000Z AUTO 33002KT M08/M11 RMK AO1 SOG 06 6046 SLP153 T10831108 =
2018-11-16 09:00 METAR CWDQ 160900Z AUTO 00000KT M09/M11 RMK AO1 SOG 06 8047 SLP164 T10851111 =
2018-11-16 08:00 METAR CWDQ 160800Z AUTO 16001KT M09/M11 RMK AO1 SOG 06 8037 SLP184 T10891114 =
2018-11-16 07:00 METAR CWDQ 160700Z AUTO 17002KT M09/M12 RMK AO1 SOG 06 6035 SLP200 T10911120 =

Support USWX by starting your Amazon purchase here.